sensor_id;sensor_type;location;lat;lon;timestamp;P1;durP1;ratioP1;P2;durP2;ratioP2
40150;SDS011;25866;52.420;10.640;2023-12-20T00:01:50;9.23;;;6.63;;
40150;SDS011;25866;52.420;10.640;2023-12-20T00:04:16;6.30;;;5.20;;
40150;SDS011;25866;52.420;10.640;2023-12-20T00:06:42;7.37;;;4.07;;
40150;SDS011;25866;52.420;10.640;2023-12-20T00:09:09;12.33;;;3.17;;
40150;SDS011;25866;52.420;10.640;2023-12-20T00:11:34;6.77;;;3.13;;
40150;SDS011;25866;52.420;10.640;2023-12-20T00:14:00;3.27;;;2.40;;
40150;SDS011;25866;52.420;10.640;2023-12-20T00:16:26;4.77;;;2.97;;
40150;SDS011;25866;52.420;10.640;2023-12-20T00:18:52;3.73;;;2.50;;
40150;SDS011;25866;52.420;10.640;2023-12-20T00:21:17;3.60;;;2.43;;
40150;SDS011;25866;52.420;10.640;2023-12-20T00:23:43;3.77;;;2.40;;
40150;SDS011;25866;52.420;10.640;2023-12-20T00:26:09;4.03;;;2.10;;
40150;SDS011;25866;52.420;10.640;2023-12-20T00:28:37;4.47;;;2.40;;
40150;SDS011;25866;52.420;10.640;2023-12-20T00:31:03;7.77;;;2.60;;
40150;SDS011;25866;52.420;10.640;2023-12-20T00:33:29;4.47;;;2.50;;
40150;SDS011;25866;52.420;10.640;2023-12-20T00:35:55;6.50;;;2.67;;
40150;SDS011;25866;52.420;10.640;2023-12-20T00:38:22;4.20;;;2.30;;
40150;SDS011;25866;52.420;10.640;2023-12-20T00:40:48;6.30;;;2.43;;
40150;SDS011;25866;52.420;10.640;2023-12-20T00:43:15;3.53;;;2.20;;
40150;SDS011;25866;52.420;10.640;2023-12-20T00:45:40;5.20;;;2.47;;
40150;SDS011;25866;52.420;10.640;2023-12-20T00:48:07;9.80;;;2.50;;
40150;SDS011;25866;52.420;10.640;2023-12-20T00:50:33;6.17;;;1.53;;
40150;SDS011;25866;52.420;10.640;2023-12-20T00:52:59;7.97;;;1.90;;
40150;SDS011;25866;52.420;10.640;2023-12-20T00:55:25;11.10;;;2.17;;
40150;SDS011;25866;52.420;10.640;2023-12-20T00:57:51;5.80;;;1.20;;
40150;SDS011;25866;52.420;10.640;2023-12-20T01:00:18;6.77;;;1.80;;
40150;SDS011;25866;52.420;10.640;2023-12-20T01:02:44;6.37;;;1.60;;
40150;SDS011;25866;52.420;10.640;2023-12-20T01:05:11;6.07;;;1.40;;
40150;SDS011;25866;52.420;10.640;2023-12-20T01:07:37;4.37;;;1.60;;
40150;SDS011;25866;52.420;10.640;2023-12-20T01:10:03;4.77;;;1.40;;
40150;SDS011;25866;52.420;10.640;2023-12-20T01:12:29;4.10;;;1.40;;
40150;SDS011;25866;52.420;10.640;2023-12-20T01:14:55;5.33;;;1.83;;
40150;SDS011;25866;52.420;10.640;2023-12-20T01:17:22;9.57;;;2.43;;
40150;SDS011;25866;52.420;10.640;2023-12-20T01:19:47;6.90;;;2.00;;
40150;SDS011;25866;52.420;10.640;2023-12-20T01:22:13;5.73;;;1.80;;
40150;SDS011;25866;52.420;10.640;2023-12-20T01:24:39;7.53;;;2.00;;
40150;SDS011;25866;52.420;10.640;2023-12-20T01:27:05;11.20;;;2.30;;
40150;SDS011;25866;52.420;10.640;2023-12-20T01:29:32;8.17;;;2.53;;
40150;SDS011;25866;52.420;10.640;2023-12-20T01:31:58;4.10;;;1.87;;
40150;SDS011;25866;52.420;10.640;2023-12-20T01:34:24;10.43;;;2.30;;
40150;SDS011;25866;52.420;10.640;2023-12-20T01:36:50;7.20;;;2.20;;
40150;SDS011;25866;52.420;10.640;2023-12-20T01:39:17;10.03;;;2.37;;
40150;SDS011;25866;52.420;10.640;2023-12-20T01:41:43;14.00;;;1.93;;
40150;SDS011;25866;52.420;10.640;2023-12-20T01:44:10;9.57;;;2.13;;
40150;SDS011;25866;52.420;10.640;2023-12-20T01:46:36;5.07;;;1.80;;
40150;SDS011;25866;52.420;10.640;2023-12-20T01:49:08;8.47;;;1.73;;
40150;SDS011;25866;52.420;10.640;2023-12-20T01:51:34;7.40;;;2.00;;
40150;SDS011;25866;52.420;10.640;2023-12-20T01:54:00;10.00;;;2.10;;
40150;SDS011;25866;52.420;10.640;2023-12-20T01:56:27;8.90;;;2.60;;
40150;SDS011;25866;52.420;10.640;2023-12-20T01:58:54;7.23;;;1.80;;
40150;SDS011;25866;52.420;10.640;2023-12-20T02:01:22;17.47;;;2.30;;
40150;SDS011;25866;52.420;10.640;2023-12-20T02:03:48;9.47;;;2.20;;
40150;SDS011;25866;52.420;10.640;2023-12-20T02:06:14;8.43;;;2.17;;
40150;SDS011;25866;52.420;10.640;2023-12-20T02:08:41;9.80;;;2.33;;
40150;SDS011;25866;52.420;10.640;2023-12-20T02:11:07;13.63;;;2.30;;
40150;SDS011;25866;52.420;10.640;2023-12-20T02:13:33;15.57;;;2.27;;
40150;SDS011;25866;52.420;10.640;2023-12-20T02:15:59;11.67;;;2.10;;
40150;SDS011;25866;52.420;10.640;2023-12-20T02:18:25;7.93;;;2.43;;
40150;SDS011;25866;52.420;10.640;2023-12-20T02:20:51;11.40;;;2.90;;
40150;SDS011;25866;52.420;10.640;2023-12-20T02:23:18;10.60;;;3.00;;
40150;SDS011;25866;52.420;10.640;2023-12-20T02:25:43;11.20;;;2.40;;
40150;SDS011;25866;52.420;10.640;2023-12-20T02:28:09;14.20;;;3.20;;
40150;SDS011;25866;52.420;10.640;2023-12-20T02:30:35;12.43;;;2.63;;
40150;SDS011;25866;52.420;10.640;2023-12-20T02:33:01;8.57;;;3.07;;
40150;SDS011;25866;52.420;10.640;2023-12-20T02:35:28;10.77;;;2.83;;
40150;SDS011;25866;52.420;10.640;2023-12-20T02:37:54;14.37;;;3.00;;
40150;SDS011;25866;52.420;10.640;2023-12-20T02:40:26;8.17;;;3.00;;
40150;SDS011;25866;52.420;10.640;2023-12-20T02:42:52;7.73;;;2.07;;
40150;SDS011;25866;52.420;10.640;2023-12-20T02:45:18;11.20;;;2.53;;
40150;SDS011;25866;52.420;10.640;2023-12-20T02:47:43;8.53;;;2.30;;
40150;SDS011;25866;52.420;10.640;2023-12-20T02:50:09;12.97;;;2.20;;
40150;SDS011;25866;52.420;10.640;2023-12-20T02:52:35;11.83;;;2.50;;
40150;SDS011;25866;52.420;10.640;2023-12-20T02:55:01;8.67;;;2.27;;
40150;SDS011;25866;52.420;10.640;2023-12-20T02:57:26;10.10;;;2.23;;
40150;SDS011;25866;52.420;10.640;2023-12-20T02:59:52;11.47;;;2.57;;
40150;SDS011;25866;52.420;10.640;2023-12-20T03:02:18;7.60;;;2.03;;
40150;SDS011;25866;52.420;10.640;2023-12-20T03:04:43;10.40;;;1.87;;
40150;SDS011;25866;52.420;10.640;2023-12-20T03:07:09;9.77;;;2.10;;
40150;SDS011;25866;52.420;10.640;2023-12-20T03:09:37;8.87;;;2.03;;
40150;SDS011;25866;52.420;10.640;2023-12-20T03:12:03;10.63;;;2.07;;
40150;SDS011;25866;52.420;10.640;2023-12-20T03:14:29;9.90;;;2.00;;
40150;SDS011;25866;52.420;10.640;2023-12-20T03:16:54;9.77;;;2.50;;
40150;SDS011;25866;52.420;10.640;2023-12-20T03:19:22;7.33;;;1.97;;
40150;SDS011;25866;52.420;10.640;2023-12-20T03:21:48;14.13;;;2.30;;
40150;SDS011;25866;52.420;10.640;2023-12-20T03:24:14;12.30;;;2.47;;
40150;SDS011;25866;52.420;10.640;2023-12-20T03:26:40;11.20;;;2.20;;
40150;SDS011;25866;52.420;10.640;2023-12-20T03:29:10;7.43;;;1.87;;
40150;SDS011;25866;52.420;10.640;2023-12-20T03:31:35;7.30;;;2.13;;
40150;SDS011;25866;52.420;10.640;2023-12-20T03:34:01;13.87;;;2.60;;
40150;SDS011;25866;52.420;10.640;2023-12-20T03:36:27;12.13;;;2.70;;
40150;SDS011;25866;52.420;10.640;2023-12-20T03:38:53;10.03;;;3.07;;
40150;SDS011;25866;52.420;10.640;2023-12-20T03:41:19;10.00;;;2.80;;
40150;SDS011;25866;52.420;10.640;2023-12-20T03:43:44;7.70;;;2.60;;
40150;SDS011;25866;52.420;10.640;2023-12-20T03:46:10;15.93;;;3.43;;
40150;SDS011;25866;52.420;10.640;2023-12-20T03:48:36;10.73;;;2.80;;
40150;SDS011;25866;52.420;10.640;2023-12-20T03:51:05;17.23;;;3.00;;
40150;SDS011;25866;52.420;10.640;2023-12-20T03:53:31;12.80;;;3.00;;
40150;SDS011;25866;52.420;10.640;2023-12-20T03:55:57;8.90;;;2.40;;
40150;SDS011;25866;52.420;10.640;2023-12-20T03:58:23;11.83;;;2.63;;
40150;SDS011;25866;52.420;10.640;2023-12-20T04:00:48;17.80;;;3.50;;
40150;SDS011;25866;52.420;10.640;2023-12-20T04:03:14;8.17;;;2.40;;
40150;SDS011;25866;52.420;10.640;2023-12-20T04:05:40;15.33;;;3.07;;
40150;SDS011;25866;52.420;10.640;2023-12-20T04:08:06;10.10;;;2.40;;
40150;SDS011;25866;52.420;10.640;2023-12-20T04:10:33;14.70;;;2.60;;
40150;SDS011;25866;52.420;10.640;2023-12-20T04:12:59;10.37;;;2.40;;
40150;SDS011;25866;52.420;10.640;2023-12-20T04:15:25;7.67;;;1.80;;
40150;SDS011;25866;52.420;10.640;2023-12-20T04:17:50;9.90;;;2.20;;
40150;SDS011;25866;52.420;10.640;2023-12-20T04:20:16;9.30;;;2.13;;
40150;SDS011;25866;52.420;10.640;2023-12-20T04:22:42;14.10;;;2.07;;
40150;SDS011;25866;52.420;10.640;2023-12-20T04:25:08;10.33;;;1.90;;
40150;SDS011;25866;52.420;10.640;2023-12-20T04:27:34;5.30;;;1.40;;
40150;SDS011;25866;52.420;10.640;2023-12-20T04:30:00;5.33;;;1.27;;
40150;SDS011;25866;52.420;10.640;2023-12-20T04:32:26;12.60;;;1.83;;
40150;SDS011;25866;52.420;10.640;2023-12-20T04:34:52;10.37;;;2.10;;
40150;SDS011;25866;52.420;10.640;2023-12-20T04:37:17;7.37;;;1.93;;
40150;SDS011;25866;52.420;10.640;2023-12-20T04:39:44;10.47;;;1.80;;
40150;SDS011;25866;52.420;10.640;2023-12-20T04:42:10;9.77;;;1.40;;
40150;SDS011;25866;52.420;10.640;2023-12-20T04:44:36;8.57;;;1.87;;
40150;SDS011;25866;52.420;10.640;2023-12-20T04:47:01;9.10;;;1.67;;
40150;SDS011;25866;52.420;10.640;2023-12-20T04:49:28;8.47;;;1.83;;
40150;SDS011;25866;52.420;10.640;2023-12-20T04:51:54;10.63;;;1.67;;
40150;SDS011;25866;52.420;10.640;2023-12-20T04:54:20;4.37;;;1.47;;
40150;SDS011;25866;52.420;10.640;2023-12-20T04:56:46;7.73;;;1.90;;
40150;SDS011;25866;52.420;10.640;2023-12-20T04:59:12;9.23;;;1.70;;
40150;SDS011;25866;52.420;10.640;2023-12-20T05:01:38;12.17;;;2.17;;
40150;SDS011;25866;52.420;10.640;2023-12-20T05:04:04;10.37;;;2.63;;
40150;SDS011;25866;52.420;10.640;2023-12-20T05:06:30;9.77;;;1.73;;
40150;SDS011;25866;52.420;10.640;2023-12-20T05:08:56;10.67;;;1.60;;
40150;SDS011;25866;52.420;10.640;2023-12-20T05:11:22;8.43;;;1.40;;
40150;SDS011;25866;52.420;10.640;2023-12-20T05:13:48;12.07;;;2.43;;
40150;SDS011;25866;52.420;10.640;2023-12-20T05:16:14;10.00;;;1.57;;
40150;SDS011;25866;52.420;10.640;2023-12-20T05:18:42;8.23;;;1.40;;
40150;SDS011;25866;52.420;10.640;2023-12-20T05:21:11;13.57;;;2.03;;
40150;SDS011;25866;52.420;10.640;2023-12-20T05:23:37;13.33;;;1.53;;
40150;SDS011;25866;52.420;10.640;2023-12-20T05:26:02;7.70;;;1.50;;
40150;SDS011;25866;52.420;10.640;2023-12-20T05:28:28;6.97;;;1.83;;
40150;SDS011;25866;52.420;10.640;2023-12-20T05:30:55;8.43;;;1.37;;
40150;SDS011;25866;52.420;10.640;2023-12-20T05:33:21;8.53;;;1.70;;
40150;SDS011;25866;52.420;10.640;2023-12-20T05:35:46;10.03;;;1.63;;
40150;SDS011;25866;52.420;10.640;2023-12-20T05:38:12;6.20;;;1.87;;
40150;SDS011;25866;52.420;10.640;2023-12-20T05:40:38;10.67;;;1.90;;
40150;SDS011;25866;52.420;10.640;2023-12-20T05:43:04;13.13;;;1.73;;
40150;SDS011;25866;52.420;10.640;2023-12-20T05:45:29;8.93;;;1.63;;
40150;SDS011;25866;52.420;10.640;2023-12-20T05:47:55;9.90;;;1.70;;
40150;SDS011;25866;52.420;10.640;2023-12-20T05:50:21;11.37;;;2.20;;
40150;SDS011;25866;52.420;10.640;2023-12-20T05:52:47;11.73;;;1.90;;
40150;SDS011;25866;52.420;10.640;2023-12-20T05:55:13;11.53;;;1.87;;
40150;SDS011;25866;52.420;10.640;2023-12-20T05:57:38;7.97;;;1.67;;
40150;SDS011;25866;52.420;10.640;2023-12-20T06:00:04;8.40;;;1.73;;
40150;SDS011;25866;52.420;10.640;2023-12-20T06:02:38;11.20;;;1.73;;
40150;SDS011;25866;52.420;10.640;2023-12-20T06:05:05;12.73;;;2.27;;
40150;SDS011;25866;52.420;10.640;2023-12-20T06:07:31;6.17;;;1.80;;
40150;SDS011;25866;52.420;10.640;2023-12-20T06:09:56;7.77;;;1.80;;
40150;SDS011;25866;52.420;10.640;2023-12-20T06:12:22;6.43;;;1.40;;
40150;SDS011;25866;52.420;10.640;2023-12-20T06:14:48;8.80;;;1.93;;
40150;SDS011;25866;52.420;10.640;2023-12-20T06:17:14;9.47;;;2.47;;
40150;SDS011;25866;52.420;10.640;2023-12-20T06:19:40;7.53;;;1.73;;
40150;SDS011;25866;52.420;10.640;2023-12-20T06:22:08;17.93;;;2.40;;
40150;SDS011;25866;52.420;10.640;2023-12-20T06:24:38;12.07;;;2.17;;
40150;SDS011;25866;52.420;10.640;2023-12-20T06:27:04;12.20;;;2.37;;
40150;SDS011;25866;52.420;10.640;2023-12-20T06:29:30;12.17;;;2.47;;
40150;SDS011;25866;52.420;10.640;2023-12-20T06:31:57;14.27;;;2.13;;
40150;SDS011;25866;52.420;10.640;2023-12-20T06:34:23;16.00;;;2.67;;
40150;SDS011;25866;52.420;10.640;2023-12-20T06:36:48;15.87;;;3.00;;
40150;SDS011;25866;52.420;10.640;2023-12-20T06:39:14;7.83;;;1.80;;
40150;SDS011;25866;52.420;10.640;2023-12-20T06:41:40;11.40;;;2.10;;
40150;SDS011;25866;52.420;10.640;2023-12-20T06:44:06;13.53;;;2.83;;
40150;SDS011;25866;52.420;10.640;2023-12-20T06:46:32;15.20;;;2.20;;
40150;SDS011;25866;52.420;10.640;2023-12-20T06:48:57;19.50;;;2.57;;
40150;SDS011;25866;52.420;10.640;2023-12-20T06:51:29;11.47;;;2.77;;
40150;SDS011;25866;52.420;10.640;2023-12-20T06:53:56;13.70;;;2.87;;
40150;SDS011;25866;52.420;10.640;2023-12-20T06:56:21;10.67;;;2.60;;
40150;SDS011;25866;52.420;10.640;2023-12-20T06:58:47;15.03;;;2.57;;
40150;SDS011;25866;52.420;10.640;2023-12-20T07:01:13;10.70;;;2.30;;
40150;SDS011;25866;52.420;10.640;2023-12-20T07:03:40;14.47;;;2.37;;
40150;SDS011;25866;52.420;10.640;2023-12-20T07:06:06;12.83;;;2.90;;
40150;SDS011;25866;52.420;10.640;2023-12-20T07:08:32;14.30;;;3.00;;
40150;SDS011;25866;52.420;10.640;2023-12-20T07:10:58;13.87;;;2.90;;
40150;SDS011;25866;52.420;10.640;2023-12-20T07:13:25;11.40;;;2.10;;
40150;SDS011;25866;52.420;10.640;2023-12-20T07:15:51;15.27;;;3.07;;
40150;SDS011;25866;52.420;10.640;2023-12-20T07:18:17;11.63;;;2.90;;
40150;SDS011;25866;52.420;10.640;2023-12-20T07:20:43;12.23;;;2.47;;
40150;SDS011;25866;52.420;10.640;2023-12-20T07:23:08;13.80;;;2.80;;
40150;SDS011;25866;52.420;10.640;2023-12-20T07:25:34;13.03;;;2.67;;
40150;SDS011;25866;52.420;10.640;2023-12-20T07:28:00;11.93;;;2.53;;
40150;SDS011;25866;52.420;10.640;2023-12-20T07:30:26;13.80;;;2.90;;
40150;SDS011;25866;52.420;10.640;2023-12-20T07:32:53;10.47;;;2.33;;
40150;SDS011;25866;52.420;10.640;2023-12-20T07:35:18;10.30;;;2.53;;
40150;SDS011;25866;52.420;10.640;2023-12-20T07:37:44;11.23;;;2.83;;
40150;SDS011;25866;52.420;10.640;2023-12-20T07:40:10;12.03;;;2.17;;
40150;SDS011;25866;52.420;10.640;2023-12-20T07:42:36;13.57;;;2.50;;
40150;SDS011;25866;52.420;10.640;2023-12-20T07:45:02;13.73;;;2.80;;
40150;SDS011;25866;52.420;10.640;2023-12-20T07:47:28;16.57;;;3.03;;
40150;SDS011;25866;52.420;10.640;2023-12-20T07:49:54;15.33;;;2.97;;
40150;SDS011;25866;52.420;10.640;2023-12-20T07:52:20;12.67;;;2.83;;
40150;SDS011;25866;52.420;10.640;2023-12-20T07:54:47;13.73;;;3.10;;
40150;SDS011;25866;52.420;10.640;2023-12-20T07:57:13;11.33;;;2.53;;
40150;SDS011;25866;52.420;10.640;2023-12-20T07:59:39;13.17;;;2.47;;
40150;SDS011;25866;52.420;10.640;2023-12-20T08:02:11;12.47;;;2.83;;
40150;SDS011;25866;52.420;10.640;2023-12-20T08:04:38;14.17;;;2.17;;
40150;SDS011;25866;52.420;10.640;2023-12-20T08:07:04;10.27;;;2.53;;
40150;SDS011;25866;52.420;10.640;2023-12-20T08:11:59;11.30;;;2.67;;
40150;SDS011;25866;52.420;10.640;2023-12-20T08:14:25;15.63;;;2.13;;
40150;SDS011;25866;52.420;10.640;2023-12-20T08:16:51;11.93;;;2.50;;
40150;SDS011;25866;52.420;10.640;2023-12-20T08:19:16;13.30;;;2.43;;
40150;SDS011;25866;52.420;10.640;2023-12-20T08:21:42;11.93;;;2.70;;
40150;SDS011;25866;52.420;10.640;2023-12-20T08:24:10;11.57;;;2.60;;
40150;SDS011;25866;52.420;10.640;2023-12-20T08:26:36;10.10;;;2.80;;
40150;SDS011;25866;52.420;10.640;2023-12-20T08:29:02;14.37;;;2.30;;
40150;SDS011;25866;52.420;10.640;2023-12-20T08:31:27;14.67;;;3.07;;
40150;SDS011;25866;52.420;10.640;2023-12-20T08:33:53;13.07;;;2.60;;
40150;SDS011;25866;52.420;10.640;2023-12-20T08:36:19;13.47;;;3.20;;
40150;SDS011;25866;52.420;10.640;2023-12-20T08:38:47;12.20;;;2.70;;
40150;SDS011;25866;52.420;10.640;2023-12-20T08:41:13;12.53;;;2.87;;
40150;SDS011;25866;52.420;10.640;2023-12-20T08:43:39;15.73;;;2.57;;
40150;SDS011;25866;52.420;10.640;2023-12-20T08:46:05;14.80;;;3.33;;
40150;SDS011;25866;52.420;10.640;2023-12-20T08:48:31;13.40;;;2.73;;
40150;SDS011;25866;52.420;10.640;2023-12-20T08:50:57;11.13;;;2.27;;
40150;SDS011;25866;52.420;10.640;2023-12-20T08:55:58;11.83;;;2.37;;
40150;SDS011;25866;52.420;10.640;2023-12-20T08:58:26;7.37;;;2.27;;
40150;SDS011;25866;52.420;10.640;2023-12-20T09:00:53;8.73;;;2.40;;
40150;SDS011;25866;52.420;10.640;2023-12-20T09:03:21;15.87;;;2.67;;
40150;SDS011;25866;52.420;10.640;2023-12-20T09:05:46;13.60;;;3.03;;
40150;SDS011;25866;52.420;10.640;2023-12-20T09:08:12;12.70;;;2.33;;
40150;SDS011;25866;52.420;10.640;2023-12-20T09:10:38;12.27;;;2.93;;
40150;SDS011;25866;52.420;10.640;2023-12-20T09:13:03;14.90;;;2.90;;
40150;SDS011;25866;52.420;10.640;2023-12-20T09:15:29;10.23;;;2.80;;
40150;SDS011;25866;52.420;10.640;2023-12-20T09:17:55;13.93;;;3.23;;
40150;SDS011;25866;52.420;10.640;2023-12-20T09:20:21;11.90;;;2.83;;
40150;SDS011;25866;52.420;10.640;2023-12-20T09:22:48;16.13;;;2.87;;
40150;SDS011;25866;52.420;10.640;2023-12-20T09:25:14;13.10;;;3.33;;
40150;SDS011;25866;52.420;10.640;2023-12-20T09:27:42;12.13;;;3.20;;
40150;SDS011;25866;52.420;10.640;2023-12-20T09:30:08;13.10;;;3.00;;
40150;SDS011;25866;52.420;10.640;2023-12-20T09:32:35;18.40;;;3.13;;
40150;SDS011;25866;52.420;10.640;2023-12-20T09:35:02;13.47;;;2.77;;
40150;SDS011;25866;52.420;10.640;2023-12-20T09:37:28;21.20;;;3.63;;
40150;SDS011;25866;52.420;10.640;2023-12-20T09:39:54;15.40;;;3.80;;
40150;SDS011;25866;52.420;10.640;2023-12-20T09:42:24;9.93;;;2.83;;
40150;SDS011;25866;52.420;10.640;2023-12-20T09:45:19;13.47;;;3.00;;
40150;SDS011;25866;52.420;10.640;2023-12-20T09:47:49;11.90;;;3.17;;
40150;SDS011;25866;52.420;10.640;2023-12-20T09:50:17;11.13;;;2.87;;
40150;SDS011;25866;52.420;10.640;2023-12-20T09:52:45;13.83;;;3.07;;
40150;SDS011;25866;52.420;10.640;2023-12-20T09:55:27;12.93;;;3.37;;
40150;SDS011;25866;52.420;10.640;2023-12-20T09:57:55;18.30;;;3.13;;
40150;SDS011;25866;52.420;10.640;2023-12-20T10:00:21;15.23;;;3.30;;
40150;SDS011;25866;52.420;10.640;2023-12-20T10:02:50;18.03;;;3.73;;
40150;SDS011;25866;52.420;10.640;2023-12-20T10:05:29;14.10;;;3.20;;
40150;SDS011;25866;52.420;10.640;2023-12-20T10:07:56;11.97;;;2.90;;
40150;SDS011;25866;52.420;10.640;2023-12-20T10:10:23;10.80;;;3.37;;
40150;SDS011;25866;52.420;10.640;2023-12-20T10:13:09;6.93;;;2.57;;
40150;SDS011;25866;52.420;10.640;2023-12-20T10:15:36;12.97;;;3.40;;
40150;SDS011;25866;52.420;10.640;2023-12-20T10:18:03;12.33;;;3.63;;
40150;SDS011;25866;52.420;10.640;2023-12-20T10:20:30;11.80;;;2.83;;
40150;SDS011;25866;52.420;10.640;2023-12-20T10:22:56;7.10;;;2.33;;
40150;SDS011;25866;52.420;10.640;2023-12-20T10:25:24;8.73;;;2.73;;
40150;SDS011;25866;52.420;10.640;2023-12-20T10:27:50;12.40;;;2.73;;
40150;SDS011;25866;52.420;10.640;2023-12-20T10:30:33;10.03;;;2.83;;
40150;SDS011;25866;52.420;10.640;2023-12-20T10:32:59;9.63;;;2.50;;
40150;SDS011;25866;52.420;10.640;2023-12-20T10:35:25;10.77;;;2.40;;
40150;SDS011;25866;52.420;10.640;2023-12-20T10:37:52;10.83;;;2.70;;
40150;SDS011;25866;52.420;10.640;2023-12-20T10:40:24;10.90;;;3.07;;
40150;SDS011;25866;52.420;10.640;2023-12-20T10:42:54;15.80;;;3.73;;
40150;SDS011;25866;52.420;10.640;2023-12-20T10:45:22;13.30;;;2.87;;
40150;SDS011;25866;52.420;10.640;2023-12-20T10:47:52;13.63;;;3.00;;
40150;SDS011;25866;52.420;10.640;2023-12-20T10:50:20;13.13;;;2.80;;
40150;SDS011;25866;52.420;10.640;2023-12-20T10:52:46;14.73;;;2.67;;
40150;SDS011;25866;52.420;10.640;2023-12-20T10:55:13;14.67;;;3.47;;
40150;SDS011;25866;52.420;10.640;2023-12-20T10:57:39;10.57;;;2.50;;
40150;SDS011;25866;52.420;10.640;2023-12-20T11:00:07;17.70;;;2.60;;
40150;SDS011;25866;52.420;10.640;2023-12-20T11:02:39;16.07;;;3.07;;
40150;SDS011;25866;52.420;10.640;2023-12-20T11:08:01;11.03;;;2.40;;
40150;SDS011;25866;52.420;10.640;2023-12-20T11:13:32;13.60;;;3.10;;
40150;SDS011;25866;52.420;10.640;2023-12-20T11:16:02;11.03;;;2.43;;
40150;SDS011;25866;52.420;10.640;2023-12-20T11:18:29;17.90;;;2.83;;
40150;SDS011;25866;52.420;10.640;2023-12-20T11:20:55;13.20;;;3.00;;
40150;SDS011;25866;52.420;10.640;2023-12-20T11:23:36;10.13;;;2.57;;
40150;SDS011;25866;52.420;10.640;2023-12-20T11:26:02;14.40;;;2.70;;
40150;SDS011;25866;52.420;10.640;2023-12-20T11:28:28;7.53;;;2.10;;
40150;SDS011;25866;52.420;10.640;2023-12-20T11:30:58;9.80;;;2.60;;
40150;SDS011;25866;52.420;10.640;2023-12-20T11:33:26;11.87;;;2.53;;
40150;SDS011;25866;52.420;10.640;2023-12-20T11:38:25;10.33;;;2.73;;
40150;SDS011;25866;52.420;10.640;2023-12-20T11:40:53;13.90;;;2.57;;
40150;SDS011;25866;52.420;10.640;2023-12-20T11:43:35;12.37;;;2.80;;
40150;SDS011;25866;52.420;10.640;2023-12-20T11:46:08;7.57;;;2.23;;
40150;SDS011;25866;52.420;10.640;2023-12-20T11:48:35;9.67;;;2.33;;
40150;SDS011;25866;52.420;10.640;2023-12-20T11:51:08;10.37;;;2.30;;
40150;SDS011;25866;52.420;10.640;2023-12-20T11:53:37;11.13;;;2.70;;
40150;SDS011;25866;52.420;10.640;2023-12-20T11:56:10;11.20;;;3.30;;
40150;SDS011;25866;52.420;10.640;2023-12-20T11:58:37;10.13;;;2.53;;
40150;SDS011;25866;52.420;10.640;2023-12-20T12:01:03;11.63;;;2.80;;
40150;SDS011;25866;52.420;10.640;2023-12-20T12:03:32;11.17;;;2.10;;
40150;SDS011;25866;52.420;10.640;2023-12-20T12:06:04;8.90;;;2.27;;
40150;SDS011;25866;52.420;10.640;2023-12-20T12:08:30;5.10;;;1.70;;
40150;SDS011;25866;52.420;10.640;2023-12-20T12:10:56;6.60;;;1.50;;
40150;SDS011;25866;52.420;10.640;2023-12-20T12:13:22;3.53;;;1.43;;
40150;SDS011;25866;52.420;10.640;2023-12-20T12:15:49;7.67;;;2.20;;
40150;SDS011;25866;52.420;10.640;2023-12-20T12:18:16;3.90;;;1.30;;
40150;SDS011;25866;52.420;10.640;2023-12-20T12:20:42;0.97;;;0.70;;
40150;SDS011;25866;52.420;10.640;2023-12-20T12:23:08;4.80;;;1.07;;
40150;SDS011;25866;52.420;10.640;2023-12-20T12:25:37;2.93;;;0.90;;
40150;SDS011;25866;52.420;10.640;2023-12-20T12:28:03;3.13;;;0.60;;
40150;SDS011;25866;52.420;10.640;2023-12-20T12:30:29;3.23;;;0.67;;
40150;SDS011;25866;52.420;10.640;2023-12-20T12:32:55;2.10;;;0.80;;
40150;SDS011;25866;52.420;10.640;2023-12-20T12:35:22;5.03;;;1.00;;
40150;SDS011;25866;52.420;10.640;2023-12-20T12:37:50;4.50;;;0.73;;
40150;SDS011;25866;52.420;10.640;2023-12-20T12:40:17;1.93;;;0.60;;
40150;SDS011;25866;52.420;10.640;2023-12-20T12:42:43;8.17;;;1.43;;
40150;SDS011;25866;52.420;10.640;2023-12-20T12:45:10;7.43;;;1.43;;
40150;SDS011;25866;52.420;10.640;2023-12-20T12:47:36;4.50;;;1.10;;
40150;SDS011;25866;52.420;10.640;2023-12-20T12:50:03;5.30;;;1.20;;
40150;SDS011;25866;52.420;10.640;2023-12-20T12:52:32;4.67;;;1.40;;
40150;SDS011;25866;52.420;10.640;2023-12-20T12:54:58;4.23;;;1.47;;
40150;SDS011;25866;52.420;10.640;2023-12-20T12:57:24;5.40;;;2.10;;
40150;SDS011;25866;52.420;10.640;2023-12-20T12:59:50;8.47;;;1.73;;
40150;SDS011;25866;52.420;10.640;2023-12-20T13:02:16;3.70;;;1.30;;
40150;SDS011;25866;52.420;10.640;2023-12-20T13:04:42;12.43;;;2.10;;
40150;SDS011;25866;52.420;10.640;2023-12-20T13:07:09;7.53;;;1.60;;
40150;SDS011;25866;52.420;10.640;2023-12-20T13:09:36;5.40;;;1.80;;
40150;SDS011;25866;52.420;10.640;2023-12-20T13:12:02;5.33;;;1.77;;
40150;SDS011;25866;52.420;10.640;2023-12-20T13:14:30;8.97;;;2.10;;
40150;SDS011;25866;52.420;10.640;2023-12-20T13:16:59;5.13;;;1.93;;
40150;SDS011;25866;52.420;10.640;2023-12-20T13:19:26;4.73;;;1.40;;
40150;SDS011;25866;52.420;10.640;2023-12-20T13:21:52;7.73;;;1.87;;
40150;SDS011;25866;52.420;10.640;2023-12-20T13:24:18;5.40;;;1.67;;
40150;SDS011;25866;52.420;10.640;2023-12-20T13:26:44;7.07;;;1.80;;
40150;SDS011;25866;52.420;10.640;2023-12-20T13:29:10;3.63;;;1.50;;
40150;SDS011;25866;52.420;10.640;2023-12-20T13:31:38;14.67;;;1.70;;
40150;SDS011;25866;52.420;10.640;2023-12-20T13:34:05;9.93;;;1.53;;
40150;SDS011;25866;52.420;10.640;2023-12-20T13:36:31;3.90;;;1.23;;
40150;SDS011;25866;52.420;10.640;2023-12-20T13:38:58;4.77;;;1.40;;
40150;SDS011;25866;52.420;10.640;2023-12-20T13:41:24;3.83;;;0.90;;
40150;SDS011;25866;52.420;10.640;2023-12-20T13:43:50;2.97;;;1.10;;
40150;SDS011;25866;52.420;10.640;2023-12-20T13:46:16;6.27;;;1.17;;
40150;SDS011;25866;52.420;10.640;2023-12-20T13:48:42;5.40;;;1.23;;
40150;SDS011;25866;52.420;10.640;2023-12-20T13:51:09;3.47;;;0.90;;
40150;SDS011;25866;52.420;10.640;2023-12-20T13:53:35;4.10;;;1.00;;
40150;SDS011;25866;52.420;10.640;2023-12-20T13:56:00;8.37;;;1.30;;
40150;SDS011;25866;52.420;10.640;2023-12-20T13:58:26;1.60;;;0.73;;
40150;SDS011;25866;52.420;10.640;2023-12-20T14:00:52;4.33;;;1.37;;
40150;SDS011;25866;52.420;10.640;2023-12-20T14:03:18;4.87;;;1.40;;
40150;SDS011;25866;52.420;10.640;2023-12-20T14:05:45;6.90;;;1.57;;
40150;SDS011;25866;52.420;10.640;2023-12-20T14:08:10;5.23;;;1.37;;
40150;SDS011;25866;52.420;10.640;2023-12-20T14:10:36;10.43;;;1.40;;
40150;SDS011;25866;52.420;10.640;2023-12-20T14:13:03;7.77;;;1.50;;
40150;SDS011;25866;52.420;10.640;2023-12-20T14:15:30;7.20;;;1.07;;
40150;SDS011;25866;52.420;10.640;2023-12-20T14:18:04;5.60;;;1.47;;
40150;SDS011;25866;52.420;10.640;2023-12-20T14:20:32;5.63;;;1.03;;
40150;SDS011;25866;52.420;10.640;2023-12-20T14:23:00;5.17;;;1.10;;
40150;SDS011;25866;52.420;10.640;2023-12-20T14:25:26;5.03;;;1.10;;
40150;SDS011;25866;52.420;10.640;2023-12-20T14:27:52;5.83;;;1.20;;
40150;SDS011;25866;52.420;10.640;2023-12-20T14:30:18;4.90;;;1.23;;
40150;SDS011;25866;52.420;10.640;2023-12-20T14:32:44;9.30;;;1.27;;
40150;SDS011;25866;52.420;10.640;2023-12-20T14:35:10;6.23;;;1.33;;
40150;SDS011;25866;52.420;10.640;2023-12-20T14:37:36;7.47;;;1.43;;
40150;SDS011;25866;52.420;10.640;2023-12-20T14:40:08;5.23;;;1.60;;